Time;durP1;ratioP1;P1;durP2;ratioP2;P2;SDS_P1;SDS_P2;PMS_P1;PMS_P2;Temp;Humidity;BMP_temperature;BMP_pressure;BME280_temperature;BME280_humidity;BME280_pressure;Samples;Min_cycle;Max_cycle;Signal;HPM_P1;HPM_P2
2022/09/15 00:01:34;;;;;;;1.30;1.20;;;21.40;99.90;;;;;;5036249;28;20386;-70
2022/09/15 00:04:00;;;;;;;1.20;1.10;;;21.40;99.90;;;;;;5036338;28;20038;-69
2022/09/15 00:06:26;;;;;;;2.35;1.33;;;21.40;99.90;;;;;;5036316;28;20022;-69
2022/09/15 00:08:53;;;;;;;2.35;1.27;;;21.50;99.90;;;;;;5036132;28;20036;-67
2022/09/15 00:11:22;;;;;;;1.10;0.93;;;21.50;99.90;;;;;;5036123;28;20538;-68
2022/09/15 00:13:49;;;;;;;3.00;1.45;;;21.40;99.90;;;;;;5036183;28;20101;-67
2022/09/15 00:16:16;;;;;;;0.98;0.77;;;21.30;99.90;;;;;;5036014;28;20022;-70
2022/09/15 00:18:43;;;;;;;1.45;0.95;;;21.40;99.90;;;;;;5035903;28;20440;-70
2022/09/15 00:21:19;;;;;;;2.10;0.90;;;21.40;99.90;;;;;;5035838;28;20034;-67
2022/09/15 00:23:45;;;;;;;2.20;0.90;;;21.40;99.90;;;;;;5035857;28;20029;-71
2022/09/15 00:26:14;;;;;;;0.90;0.80;;;21.40;99.90;;;;;;5035907;28;20017;-70
2022/09/15 00:28:41;;;;;;;1.85;0.90;;;21.40;99.90;;;;;;5035862;28;20049;-69
2022/09/15 00:31:09;;;;;;;1.13;0.82;;;21.40;99.90;;;;;;5035725;28;20052;-68
2022/09/15 00:33:35;;;;;;;0.80;0.77;;;21.30;99.90;;;;;;5035649;28;20067;-68
2022/09/15 00:36:07;;;;;;;1.27;0.98;;;21.40;99.90;;;;;;5035686;28;20026;-68
2022/09/15 00:38:34;;;;;;;1.15;0.88;;;21.40;99.90;;;;;;5035581;28;20025;-70
2022/09/15 00:41:01;;;;;;;2.42;1.08;;;21.40;99.90;;;;;;5035539;28;20025;-67
2022/09/15 00:43:50;;;;;;;1.52;0.80;;;21.30;99.90;;;;;;5035664;28;20112;-69
2022/09/15 00:46:18;;;;;;;1.40;0.98;;;21.20;99.90;;;;;;5017782;28;20361;-68
2022/09/15 00:48:53;;;;;;;4.00;1.08;;;21.20;99.90;;;;;;5035318;28;20026;-67
2022/09/15 00:51:23;;;;;;;1.35;0.90;;;21.20;99.90;;;;;;5035393;28;20032;-69
2022/09/15 00:53:51;;;;;;;1.35;1.10;;;21.20;99.90;;;;;;5035659;28;20017;-68
2022/09/15 00:56:18;;;;;;;1.60;0.70;;;21.30;99.90;;;;;;5035103;28;20041;-68
2022/09/15 00:58:55;;;;;;;0.70;0.70;;;21.30;99.90;;;;;;5035502;28;20025;-68
2022/09/15 01:01:24;;;;;;;1.83;0.80;;;21.30;99.90;;;;;;5035145;28;20033;-67
2022/09/15 01:03:50;;;;;;;0.63;0.60;;;21.40;99.90;;;;;;5035047;28;20026;-69
2022/09/15 01:06:38;;;;;;;1.38;0.80;;;21.40;99.90;;;;;;5035290;28;20029;-71
2022/09/15 01:09:16;;;;;;;0.70;0.70;;;21.40;99.90;;;;;;5035095;28;20025;-67
2022/09/15 01:11:42;;;;;;;0.90;0.70;;;21.30;99.90;;;;;;5017360;28;20029;-68
2022/09/15 01:14:08;;;;;;;1.85;0.90;;;21.30;99.90;;;;;;5034986;28;20028;-68
2022/09/15 01:17:03;;;;;;;1.95;1.00;;;21.30;99.90;;;;;;5034857;28;20365;-67
2022/09/15 01:19:58;;;;;;;1.60;1.05;;;21.30;99.90;;;;;;4990654;28;20034;-67
2022/09/15 01:22:35;;;;;;;4.32;1.65;;;21.20;99.90;;;;;;5034729;28;20030;-68
2022/09/15 01:25:11;;;;;;;1.13;1.02;;;21.10;99.90;;;;;;5034898;28;20025;-68
2022/09/15 01:27:58;;;;;;;1.48;1.08;;;21.00;99.90;;;;;;5034781;28;20030;-69
2022/09/15 01:30:25;;;;;;;1.60;1.30;;;21.00;99.90;;;;;;5034499;28;20021;-67
2022/09/15 01:33:27;;;;;;;1.33;1.23;;;20.90;99.90;;;;;;5034647;28;20029;-69
2022/09/15 01:36:00;;;;;;;1.55;1.30;;;20.90;99.90;;;;;;4930921;28;20039;-67
2022/09/15 01:38:39;;;;;;;0.95;0.93;;;20.90;99.90;;;;;;5034732;28;20029;-67
2022/09/15 01:41:13;;;;;;;1.40;1.10;;;20.90;99.90;;;;;;5034332;28;20546;-70
2022/09/15 01:43:50;;;;;;;1.35;0.90;;;21.00;99.90;;;;;;5034340;28;20022;-67
2022/09/15 01:46:19;;;;;;;1.45;1.13;;;20.90;99.90;;;;;;5034274;28;20097;-69
2022/09/15 01:48:47;;;;;;;0.80;0.80;;;20.90;99.90;;;;;;5034342;28;20025;-68
2022/09/15 01:51:13;;;;;;;1.50;0.85;;;20.90;99.90;;;;;;5034393;28;20029;-70
2022/09/15 01:53:39;;;;;;;0.80;0.70;;;21.00;99.90;;;;;;5034205;28;20060;-69
2022/09/15 01:56:08;;;;;;;1.05;0.65;;;21.00;99.90;;;;;;5034081;28;20053;-69
2022/09/15 01:58:34;;;;;;;0.88;0.60;;;21.10;99.90;;;;;;5034297;28;20029;-69
2022/09/15 02:01:28;;;;;;;0.85;0.70;;;21.10;99.90;;;;;;5033978;28;20480;-67
2022/09/15 02:04:20;;;;;;;0.90;0.70;;;21.10;99.90;;;;;;5034104;28;20025;-68
2022/09/15 02:07:06;;;;;;;2.58;0.82;;;21.10;99.90;;;;;;5033926;28;20025;-67
2022/09/15 02:09:44;;;;;;;1.20;0.80;;;21.00;99.90;;;;;;5034254;28;20439;-68
2022/09/15 02:12:49;;;;;;;1.05;0.70;;;21.00;99.90;;;;;;5033855;28;20036;-69
2022/09/15 02:15:27;;;;;;;0.75;0.70;;;20.90;99.90;;;;;;5019471;28;20029;-69
2022/09/15 02:17:56;;;;;;;1.42;0.57;;;21.00;99.90;;;;;;5033952;28;20388;-66
2022/09/15 02:20:32;;;;;;;0.65;0.60;;;21.00;99.90;;;;;;5033735;28;20048;-69
2022/09/15 02:23:07;;;;;;;0.73;0.57;;;21.10;99.90;;;;;;5033729;28;20070;-67
2022/09/15 02:25:47;;;;;;;1.83;0.90;;;21.10;99.90;;;;;;5034017;28;20060;-66
2022/09/15 02:28:15;;;;;;;0.80;0.60;;;21.00;99.90;;;;;;5033668;28;20022;-68
2022/09/15 02:30:43;;;;;;;1.23;0.70;;;21.00;99.90;;;;;;5033432;28;20079;-68
2022/09/15 02:33:15;;;;;;;0.65;0.60;;;21.10;99.90;;;;;;5033491;28;20041;-70
2022/09/15 02:35:41;;;;;;;0.68;0.60;;;21.10;99.90;;;;;;5033549;28;20025;-69
2022/09/15 02:38:09;;;;;;;0.80;0.47;;;21.10;99.90;;;;;;5033526;28;20037;-68
2022/09/15 02:40:39;;;;;;;0.70;0.50;;;21.10;99.90;;;;;;5033297;28;20021;-71
2022/09/15 02:43:10;;;;;;;1.95;0.60;;;21.10;99.90;;;;;;5033315;28;20026;-67
2022/09/15 02:45:35;;;;;;;0.60;0.50;;;21.10;99.90;;;;;;5033408;28;20468;-69
2022/09/15 02:48:01;;;;;;;1.52;0.60;;;21.20;99.90;;;;;;5015691;28;20411;-67
2022/09/15 02:50:27;;;;;;;1.10;0.63;;;21.20;99.90;;;;;;5033432;28;20025;-69
2022/09/15 02:52:54;;;;;;;1.10;0.63;;;21.10;99.90;;;;;;5033449;28;20491;-68
2022/09/15 02:55:20;;;;;;;1.23;0.77;;;21.10;99.90;;;;;;5033329;28;20021;-68
2022/09/15 02:57:46;;;;;;;1.20;0.82;;;21.10;99.90;;;;;;5033121;28;20499;-69
2022/09/15 03:00:12;;;;;;;0.95;0.73;;;21.00;99.90;;;;;;5033267;28;20053;-69
2022/09/15 03:02:44;;;;;;;1.35;0.65;;;21.00;99.90;;;;;;5033092;28;20059;-68
2022/09/15 03:05:11;;;;;;;1.15;0.80;;;20.90;99.90;;;;;;5033348;28;20029;-70
2022/09/15 03:07:37;;;;;;;2.05;0.70;;;20.90;99.90;;;;;;5033188;28;20026;-70
2022/09/15 03:10:07;;;;;;;1.77;0.40;;;20.90;99.90;;;;;;5033140;28;20026;-70
2022/09/15 03:12:38;;;;;;;0.70;0.65;;;20.90;99.90;;;;;;5032975;28;20048;-66
2022/09/15 03:15:04;;;;;;;0.50;0.50;;;21.00;99.90;;;;;;5033304;28;20483;-69
2022/09/15 03:17:34;;;;;;;0.40;0.40;;;21.00;99.90;;;;;;5033397;28;20028;-69
2022/09/15 03:20:00;;;;;;;1.38;0.73;;;20.90;99.90;;;;;;5033163;28;20423;-67
2022/09/15 03:22:26;;;;;;;1.00;0.50;;;20.90;99.90;;;;;;5032974;28;20026;-67
2022/09/15 03:24:51;;;;;;;0.80;0.50;;;20.90;99.90;;;;;;5033116;28;20053;-70
2022/09/15 03:27:17;;;;;;;1.17;0.70;;;20.90;99.90;;;;;;5036717;28;20388;-67
2022/09/15 03:29:43;;;;;;;2.08;0.80;;;20.90;99.90;;;;;;5036927;28;20053;-70
2022/09/15 03:32:08;;;;;;;1.73;0.63;;;20.90;99.90;;;;;;5036796;28;20033;-68
2022/09/15 03:34:34;;;;;;;1.40;0.60;;;20.90;99.90;;;;;;5036895;28;20029;-68
2022/09/15 03:37:00;;;;;;;2.38;0.70;;;20.90;99.90;;;;;;5036820;28;20022;-67
2022/09/15 03:39:25;;;;;;;0.80;0.50;;;20.90;99.90;;;;;;5036736;28;20033;-67
2022/09/15 03:41:51;;;;;;;1.38;0.63;;;20.90;99.90;;;;;;5036515;28;20105;-67
2022/09/15 03:44:17;;;;;;;1.52;0.70;;;20.90;99.90;;;;;;5036723;28;20427;-69
2022/09/15 03:46:43;;;;;;;1.02;0.68;;;20.90;99.90;;;;;;5036573;28;20426;-70
2022/09/15 03:49:09;;;;;;;1.30;0.40;;;20.90;99.90;;;;;;5036624;28;20109;-66
2022/09/15 03:51:34;;;;;;;1.10;0.50;;;20.90;99.90;;;;;;5036602;28;20057;-70
2022/09/15 03:54:00;;;;;;;1.35;0.50;;;20.90;99.90;;;;;;5036476;28;20476;-66
2022/09/15 03:56:30;;;;;;;2.80;0.98;;;20.90;99.90;;;;;;5036253;28;20056;-67
2022/09/15 03:58:56;;;;;;;0.73;0.70;;;20.80;99.90;;;;;;5036512;28;20029;-67
2022/09/15 04:01:22;;;;;;;0.52;0.50;;;20.80;99.90;;;;;;5036212;28;20033;-67
2022/09/15 04:03:49;;;;;;;1.15;0.60;;;20.80;99.90;;;;;;5036298;28;20040;-69
2022/09/15 04:06:15;;;;;;;0.68;0.60;;;20.90;99.90;;;;;;5036390;28;20025;-68
2022/09/15 04:08:41;;;;;;;1.73;0.80;;;20.80;99.90;;;;;;5036255;28;20018;-69
2022/09/15 04:11:09;;;;;;;2.88;1.20;;;20.80;99.90;;;;;;5035938;28;20083;-69
2022/09/15 04:13:37;;;;;;;1.10;0.80;;;20.90;99.90;;;;;;5036162;28;20040;-68
2022/09/15 04:16:08;;;;;;;0.85;0.70;;;20.90;99.90;;;;;;5018369;28;20025;-69
2022/09/15 04:18:35;;;;;;;1.20;0.73;;;20.90;99.90;;;;;;5036063;28;20018;-68
2022/09/15 04:21:04;;;;;;;1.38;0.75;;;20.80;99.90;;;;;;5036089;28;20076;-69
2022/09/15 04:23:30;;;;;;;1.90;1.02;;;20.80;99.90;;;;;;5035772;28;20477;-67
2022/09/15 04:25:58;;;;;;;2.10;1.48;;;20.80;99.90;;;;;;5035744;28;20017;-67
2022/09/15 04:28:25;;;;;;;2.40;1.40;;;20.80;99.90;;;;;;5036005;28;20025;-67
2022/09/15 04:30:52;;;;;;;2.80;1.58;;;20.60;99.90;;;;;;5036071;28;20018;-66
2022/09/15 04:33:18;;;;;;;1.52;1.23;;;20.60;99.90;;;;;;5035782;28;20491;-68
2022/09/15 04:35:44;;;;;;;1.48;1.20;;;20.60;99.90;;;;;;5018010;28;20029;-69
2022/09/15 04:38:10;;;;;;;1.10;0.90;;;20.50;99.90;;;;;;5035344;28;20025;-70
2022/09/15 04:40:36;;;;;;;3.30;1.40;;;20.60;99.90;;;;;;5035359;28;20021;-70
2022/09/15 04:43:03;;;;;;;1.45;0.85;;;20.60;99.90;;;;;;5035768;28;20064;-69
2022/09/15 04:45:29;;;;;;;2.45;1.38;;;20.50;99.90;;;;;;5035652;28;20434;-66
2022/09/15 04:47:54;;;;;;;1.85;1.20;;;20.50;99.90;;;;;;5035471;28;20021;-68
2022/09/15 04:50:20;;;;;;;0.80;0.80;;;20.40;99.90;;;;;;5033582;28;20029;-69
2022/09/15 04:52:46;;;;;;;1.40;0.80;;;20.50;99.90;;;;;;5035339;28;20032;-70
2022/09/15 04:55:11;;;;;;;2.00;0.95;;;20.60;99.90;;;;;;5035006;28;20445;-65
2022/09/15 04:57:37;;;;;;;1.42;0.88;;;20.70;99.90;;;;;;5016537;28;20497;-70
2022/09/15 05:00:05;;;;;;;1.35;0.80;;;20.70;99.90;;;;;;4996106;28;20043;-68
2022/09/15 05:02:32;;;;;;;1.65;0.70;;;20.80;99.90;;;;;;5012238;28;20480;-69
2022/09/15 05:04:58;;;;;;;1.15;0.90;;;20.90;99.90;;;;;;5015230;28;20034;-70
2022/09/15 05:07:23;;;;;;;3.13;0.65;;;20.90;99.90;;;;;;5015333;28;20071;-70
2022/09/15 05:09:49;;;;;;;1.42;0.63;;;20.90;99.90;;;;;;5014953;28;20018;-68
2022/09/15 05:12:16;;;;;;;1.10;0.75;;;21.00;99.90;;;;;;5015013;28;20029;-68
2022/09/15 05:14:41;;;;;;;1.40;1.00;;;21.00;99.90;;;;;;5014683;28;20026;-69
2022/09/15 05:17:07;;;;;;;3.38;0.82;;;21.00;99.90;;;;;;5015114;28;20136;-68
2022/09/15 05:19:33;;;;;;;0.80;0.80;;;21.00;99.90;;;;;;5014012;28;20097;-70
2022/09/15 05:21:58;;;;;;;1.10;0.77;;;21.10;99.90;;;;;;5014816;28;20034;-67
2022/09/15 05:24:24;;;;;;;1.60;0.80;;;21.10;99.90;;;;;;5013446;28;20022;-68
2022/09/15 05:26:49;;;;;;;3.42;1.25;;;21.20;99.90;;;;;;5013373;28;20030;-68
2022/09/15 05:29:15;;;;;;;1.10;0.90;;;21.20;99.90;;;;;;4996474;28;20022;-69
2022/09/15 05:31:41;;;;;;;0.77;0.70;;;21.30;99.90;;;;;;5012912;28;20049;-66
2022/09/15 05:34:06;;;;;;;1.67;0.60;;;21.30;99.90;;;;;;5007518;28;20235;-68
2022/09/15 05:36:32;;;;;;;1.20;0.90;;;21.30;99.90;;;;;;5004034;28;20030;-68
2022/09/15 05:39:00;;;;;;;1.73;0.80;;;21.30;99.90;;;;;;5003799;28;20032;-67
2022/09/15 05:41:27;;;;;;;3.03;0.90;;;21.30;99.90;;;;;;5012511;28;20295;-71
2022/09/15 05:43:55;;;;;;;1.35;0.90;;;21.30;99.90;;;;;;5012558;28;20113;-68
2022/09/15 05:46:24;;;;;;;2.35;1.20;;;21.30;99.90;;;;;;5012983;28;20030;-68
2022/09/15 05:48:50;;;;;;;1.33;1.13;;;21.20;99.90;;;;;;5012342;28;20022;-69
2022/09/15 05:51:16;;;;;;;2.42;1.00;;;21.20;99.90;;;;;;5012768;28;20028;-70
2022/09/15 05:53:41;;;;;;;1.35;0.90;;;21.30;99.90;;;;;;5013501;28;20471;-68
2022/09/15 05:56:10;;;;;;;1.20;0.85;;;21.40;99.90;;;;;;5013592;28;20481;-68
2022/09/15 05:58:39;;;;;;;0.60;0.60;;;21.50;99.90;;;;;;5012217;28;20029;-68
2022/09/15 06:01:12;;;;;;;1.45;0.80;;;21.50;99.90;;;;;;5012300;28;20026;-67
2022/09/15 06:03:39;;;;;;;0.77;0.60;;;21.60;99.90;;;;;;5012010;28;20488;-67
2022/09/15 06:06:06;;;;;;;0.60;0.60;;;21.70;99.90;;;;;;5012115;28;20022;-69
2022/09/15 06:08:36;;;;;;;1.35;0.80;;;21.80;99.90;;;;;;5005344;28;20054;-68
2022/09/15 06:11:14;;;;;;;0.80;0.60;;;21.80;99.90;;;;;;5001392;28;20092;-68
2022/09/15 06:13:40;;;;;;;5.85;1.08;;;21.90;99.90;;;;;;5000870;28;20030;-70
2022/09/15 06:16:09;;;;;;;1.80;0.90;;;21.90;99.90;;;;;;5000963;28;20030;-69
2022/09/15 06:18:36;;;;;;;1.58;0.98;;;21.90;99.90;;;;;;4999808;28;21361;-70
2022/09/15 06:21:13;;;;;;;1.30;0.93;;;22.00;99.90;;;;;;5011372;28;20115;-68
2022/09/15 06:23:39;;;;;;;2.05;1.13;;;22.00;99.90;;;;;;5006680;28;20026;-68
2022/09/15 06:26:13;;;;;;;1.17;1.00;;;22.10;99.90;;;;;;4985876;28;20030;-69
2022/09/15 06:28:41;;;;;;;1.50;1.10;;;22.10;99.90;;;;;;5000317;28;20037;-71
2022/09/15 06:31:11;;;;;;;1.30;0.93;;;22.20;99.90;;;;;;5002647;28;20018;-68
2022/09/15 06:33:42;;;;;;;2.75;0.90;;;22.40;99.90;;;;;;5002183;28;20077;-70
2022/09/15 06:36:08;;;;;;;1.60;1.30;;;22.50;99.90;;;;;;5002136;28;20033;-70
2022/09/15 06:38:34;;;;;;;1.00;0.80;;;22.60;99.90;;;;;;5009574;28;20026;-68
2022/09/15 06:41:00;;;;;;;1.92;1.15;;;22.60;99.90;;;;;;5009252;28;20052;-70
2022/09/15 06:43:25;;;;;;;2.13;1.35;;;22.60;99.90;;;;;;5012405;28;20425;-70
2022/09/15 06:45:51;;;;;;;1.65;1.45;;;22.70;99.90;;;;;;5012316;28;20036;-70
2022/09/15 06:48:17;;;;;;;2.00;1.65;;;22.70;99.90;;;;;;5013190;28;20061;-70
2022/09/15 06:50:43;;;;;;;3.40;1.65;;;22.90;99.90;;;;;;5010369;28;20088;-68
2022/09/15 06:53:10;;;;;;;3.97;1.80;;;23.00;99.90;;;;;;5006477;28;20026;-69
2022/09/15 06:55:35;;;;;;;2.03;1.50;;;23.30;99.90;;;;;;5002401;28;20034;-68
2022/09/15 06:58:03;;;;;;;2.30;1.33;;;23.60;99.90;;;;;;5007167;28;20026;-67
2022/09/15 07:00:29;;;;;;;2.13;1.55;;;23.90;99.90;;;;;;4992578;28;20045;-68
2022/09/15 07:02:55;;;;;;;2.50;1.30;;;24.20;99.90;;;;;;4992527;28;20500;-67
2022/09/15 07:05:22;;;;;;;1.85;1.50;;;24.40;99.90;;;;;;5011749;28;20029;-69
2022/09/15 07:07:48;;;;;;;3.03;1.35;;;24.50;99.90;;;;;;5012229;28;20041;-72
2022/09/15 07:10:13;;;;;;;1.85;1.13;;;24.40;99.90;;;;;;5010925;28;20022;-69
2022/09/15 07:12:39;;;;;;;2.42;1.45;;;24.30;99.90;;;;;;5009725;28;20101;-65
2022/09/15 07:15:05;;;;;;;2.38;1.35;;;24.20;99.90;;;;;;5008116;28;20033;-66
2022/09/15 07:17:31;;;;;;;4.93;2.10;;;24.10;99.90;;;;;;5007986;28;20026;-69
2022/09/15 07:19:56;;;;;;;2.13;1.60;;;24.10;99.90;;;;;;5009490;28;20033;-66
2022/09/15 07:22:23;;;;;;;4.70;2.03;;;24.10;99.90;;;;;;5009046;28;20022;-68
2022/09/15 07:24:49;;;;;;;5.45;2.40;;;24.20;99.90;;;;;;5008639;28;20030;-68
2022/09/15 07:27:15;;;;;;;3.38;2.20;;;24.20;99.90;;;;;;5003412;28;20030;-69
2022/09/15 07:29:40;;;;;;;3.25;2.58;;;24.10;99.90;;;;;;5002948;28;20034;-68
2022/09/15 07:32:06;;;;;;;2.75;2.17;;;24.00;99.90;;;;;;5005056;28;20026;-68
2022/09/15 07:34:35;;;;;;;2.65;2.45;;;23.90;99.90;;;;;;5002800;28;20034;-66
2022/09/15 07:37:01;;;;;;;5.40;3.00;;;23.90;99.90;;;;;;5007221;28;20018;-66
2022/09/15 07:39:27;;;;;;;4.47;2.60;;;23.90;99.90;;;;;;5000915;28;20218;-66
2022/09/15 07:41:53;;;;;;;2.78;2.50;;;23.90;99.90;;;;;;5008728;28;20026;-66
2022/09/15 07:44:19;;;;;;;5.45;3.45;;;23.90;99.90;;;;;;5010461;28;20373;-65
2022/09/15 07:46:45;;;;;;;4.22;3.10;;;23.80;99.90;;;;;;5007780;28;20026;-66
2022/09/15 07:49:11;;;;;;;5.80;3.30;;;23.70;99.90;;;;;;5001509;28;20033;-66
2022/09/15 07:51:36;;;;;;;7.32;3.72;;;23.60;99.90;;;;;;5007086;28;20026;-66
2022/09/15 07:54:02;;;;;;;7.38;3.85;;;23.60;99.90;;;;;;5006217;28;20161;-66
2022/09/15 07:56:28;;;;;;;6.15;4.00;;;23.40;99.90;;;;;;5006513;28;20096;-64
2022/09/15 07:58:53;;;;;;;6.38;4.28;;;23.30;99.90;;;;;;5000885;28;20373;-67
2022/09/15 08:01:21;;;;;;;9.40;4.65;;;23.20;99.90;;;;;;4998661;28;20070;-69
2022/09/15 08:03:49;;;;;;;7.47;3.80;;;23.10;99.90;;;;;;5000478;28;20057;-67
2022/09/15 08:06:20;;;;;;;4.35;3.70;;;23.00;99.90;;;;;;5002747;28;20030;-66
2022/09/15 08:08:45;;;;;;;5.18;3.67;;;22.90;99.90;;;;;;5007121;28;20021;-66
2022/09/15 08:11:16;;;;;;;4.43;3.15;;;22.90;99.90;;;;;;5000254;28;20384;-67
2022/09/15 08:13:43;;;;;;;5.30;3.70;;;22.70;99.90;;;;;;5001293;28;20031;-68
2022/09/15 08:16:12;;;;;;;6.65;3.95;;;22.50;99.90;;;;;;5001095;28;20029;-69
2022/09/15 08:18:38;;;;;;;6.05;3.90;;;22.30;99.90;;;;;;5000987;28;20034;-65
2022/09/15 08:21:11;;;;;;;6.55;3.60;;;22.00;99.90;;;;;;5004514;28;20041;-67
2022/09/15 08:23:37;;;;;;;7.57;3.25;;;21.80;99.90;;;;;;5012092;28;20038;-66
2022/09/15 08:26:11;;;;;;;5.45;3.15;;;21.70;99.90;;;;;;5005804;28;20038;-65
2022/09/15 08:28:37;;;;;;;5.13;2.65;;;21.60;99.90;;;;;;5012362;28;20060;-67
2022/09/15 08:31:06;;;;;;;7.22;3.10;;;21.70;99.90;;;;;;5010007;28;20026;-68
2022/09/15 08:33:32;;;;;;;5.43;3.15;;;21.90;99.90;;;;;;5013990;28;20827;-67
2022/09/15 08:36:06;;;;;;;5.95;3.55;;;21.80;99.90;;;;;;5014771;28;20042;-67
2022/09/15 08:38:33;;;;;;;7.30;4.00;;;21.80;99.90;;;;;;5010298;28;20033;-66
2022/09/15 08:41:03;;;;;;;6.90;4.53;;;21.90;99.90;;;;;;5012934;28;20100;-69
2022/09/15 08:43:38;;;;;;;4.00;3.55;;;22.00;99.90;;;;;;5013361;28;20117;-68
2022/09/15 08:46:08;;;;;;;4.63;2.92;;;22.30;99.90;;;;;;5009903;28;20515;-66
2022/09/15 08:48:48;;;;;;;4.22;2.58;;;22.50;99.90;;;;;;4993795;28;20072;-69
2022/09/15 08:51:23;;;;;;;2.95;2.40;;;22.70;99.90;;;;;;5011380;28;20026;-68
2022/09/15 08:53:58;;;;;;;3.28;2.95;;;22.90;99.90;;;;;;5008057;28;20489;-67
2022/09/15 08:56:27;;;;;;;11.27;7.18;;;23.10;99.90;;;;;;5005476;28;20404;-67
2022/09/15 08:58:53;;;;;;;5.15;4.68;;;23.30;99.90;;;;;;5013385;28;20026;-67
2022/09/15 09:01:31;;;;;;;3.70;2.70;;;23.60;99.90;;;;;;5010439;28;20847;-67
2022/09/15 09:04:03;;;;;;;2.65;2.22;;;23.90;99.90;;;;;;5011470;28;20085;-67
2022/09/15 09:06:45;;;;;;;5.43;2.60;;;24.20;99.90;;;;;;5012667;28;20047;-65
2022/09/15 09:09:17;;;;;;;2.10;1.90;;;24.50;99.90;;;;;;5005416;28;20021;-66
2022/09/15 09:12:05;;;;;;;2.28;1.92;;;24.70;99.90;;;;;;5007209;28;20109;-67
2022/09/15 09:15:14;;;;;;;2.10;1.55;;;25.10;99.90;;;;;;5003839;28;20392;-68
2022/09/15 09:17:52;;;;;;;3.40;2.40;;;25.30;99.90;;;;;;5001253;28;20028;-68
2022/09/15 09:21:09;;;;;;;2.03;1.70;;;25.20;99.90;;;;;;5000240;28;20030;-67
2022/09/15 09:23:54;;;;;;;3.90;2.55;;;25.20;99.90;;;;;;4976686;28;20045;-67
2022/09/15 09:26:20;;;;;;;5.03;3.10;;;25.20;99.90;;;;;;5009742;28;20060;-65
2022/09/15 09:28:59;;;;;;;8.30;3.28;;;25.00;99.90;;;;;;5003835;28;20130;-66
2022/09/15 09:31:26;;;;;;;6.53;3.67;;;24.80;99.90;;;;;;5009616;28;20030;-68
2022/09/15 09:34:37;;;;;;;8.90;5.05;;;24.70;99.90;;;;;;5012732;28;20022;-66
2022/09/15 09:37:11;;;;;;;4.55;4.10;;;24.80;99.90;;;;;;4986092;28;20038;-69
2022/09/15 09:39:37;;;;;;;4.40;4.00;;;25.20;99.90;;;;;;5012774;28;20029;-67
2022/09/15 09:42:04;;;;;;;5.95;3.97;;;25.60;99.90;;;;;;5009932;28;20056;-68
2022/09/15 09:44:31;;;;;;;4.47;3.50;;;26.10;99.90;;;;;;5008822;28;20030;-67
2022/09/15 09:47:00;;;;;;;4.82;3.90;;;26.30;99.90;;;;;;5009451;28;20473;-69
2022/09/15 09:49:30;;;;;;;5.85;5.30;;;26.40;99.90;;;;;;5010951;28;20052;-67
2022/09/15 09:52:03;;;;;;;7.97;6.15;;;26.40;99.90;;;;;;5008967;28;20036;-68
2022/09/15 09:54:31;;;;;;;7.25;6.40;;;26.40;99.90;;;;;;5010588;28;20057;-68
2022/09/15 09:57:20;;;;;;;8.00;5.60;;;26.40;99.90;;;;;;5009971;28;20053;-70
2022/09/15 09:59:50;;;;;;;5.53;4.85;;;26.50;99.90;;;;;;4992277;28;20022;-70
2022/09/15 10:02:22;;;;;;;5.55;4.32;;;26.70;99.90;;;;;;5009445;28;20123;-69
